createdAt,value
2022-10-22T00:00:55.792Z,96.14
2022-10-22T00:03:23.939Z,95.90
2022-10-22T00:05:51.640Z,95.18
2022-10-22T00:08:19.627Z,94.49
2022-10-22T00:10:47.423Z,95.09
2022-10-22T00:13:15.640Z,94.68
2022-10-22T00:15:44.810Z,94.20
2022-10-22T00:18:12.500Z,94.26
2022-10-22T00:20:40.388Z,93.88
2022-10-22T00:23:08.373Z,92.82
2022-10-22T00:25:37.156Z,93.67
2022-10-22T00:28:05.279Z,94.53
2022-10-22T00:30:33.027Z,92.97
2022-10-22T00:33:02.048Z,92.95
2022-10-22T00:35:30.155Z,93.27
2022-10-22T00:37:57.830Z,94.35
2022-10-22T00:40:26.343Z,94.30
2022-10-22T00:42:54.179Z,93.67
2022-10-22T00:45:25.360Z,93.61
2022-10-22T00:48:01.094Z,93.55
2022-10-22T00:50:34.205Z,93.95
2022-10-22T00:53:03.436Z,93.42
2022-10-22T00:55:32.242Z,94.30
2022-10-22T00:58:02.595Z,93.50
2022-10-22T01:00:30.374Z,93.97
2022-10-22T01:02:59.123Z,93.53
2022-10-22T01:05:30.830Z,92.63
2022-10-22T01:07:58.923Z,93.92
2022-10-22T01:10:42.238Z,93.12
2022-10-22T01:13:23.826Z,93.83
2022-10-22T01:16:00.364Z,94.71
2022-10-22T01:18:38.191Z,94.72
2022-10-22T01:21:19.540Z,93.79
2022-10-22T01:24:07.152Z,94.68
2022-10-22T01:26:44.928Z,93.17
2022-10-22T01:29:18.181Z,93.97
2022-10-22T01:31:51.451Z,93.85
2022-10-22T01:34:20.179Z,94.50
2022-10-22T01:36:49.289Z,94.06
2022-10-22T01:39:18.543Z,95.86
2022-10-22T01:41:47.153Z,95.69
2022-10-22T01:44:30.570Z,95.36
2022-10-22T01:47:12.510Z,95.83
2022-10-22T01:49:53.552Z,95.19
2022-10-22T01:52:32.930Z,96.40
2022-10-22T01:55:10.891Z,95.61
2022-10-22T01:57:51.026Z,96.12
2022-10-22T02:00:21.461Z,98.02
2022-10-22T02:02:56.231Z,97.44
2022-10-22T02:05:29.471Z,97.23
2022-10-22T02:08:02.676Z,95.63
2022-10-22T02:10:31.937Z,96.83
2022-10-22T02:13:02.492Z,95.47
2022-10-22T02:15:34.366Z,95.46
2022-10-22T02:18:02.463Z,96.53
2022-10-22T02:20:32.966Z,96.34
2022-10-22T02:23:01.816Z,94.27
2022-10-22T02:25:33.514Z,94.36
2022-10-22T02:28:06.256Z,94.02
2022-10-22T02:30:37.317Z,94.94
2022-10-22T02:33:12.735Z,95.85
2022-10-22T02:35:42.770Z,95.98
2022-10-22T02:38:12.608Z,96.15
2022-10-22T02:40:40.536Z,96.69
2022-10-22T02:43:08.386Z,96.05
2022-10-22T02:45:38.287Z,94.62
2022-10-22T02:48:06.872Z,96.09
2022-10-22T02:50:34.581Z,96.98
2022-10-22T02:53:02.366Z,95.79
2022-10-22T02:55:30.284Z,95.22
2022-10-22T02:57:58.030Z,96.58
2022-10-22T03:00:25.792Z,96.56
2022-10-22T03:02:54.910Z,95.77
2022-10-22T03:05:22.623Z,97.77
2022-10-22T03:07:50.323Z,96.11
2022-10-22T03:10:18.240Z,95.63
2022-10-22T03:12:45.922Z,95.62
2022-10-22T03:15:14.307Z,96.32
2022-10-22T03:17:42.343Z,96.98
2022-10-22T03:20:11.677Z,97.00
2022-10-22T03:22:41.965Z,98.26
2022-10-22T03:25:13.369Z,97.14
2022-10-22T03:27:42.853Z,97.40
2022-10-22T03:30:12.245Z,98.75
2022-10-22T03:32:40.175Z,98.28
2022-10-22T03:35:08.478Z,100.00
2022-10-22T03:37:38.745Z,100.00
2022-10-22T03:40:08.950Z,100.00
2022-10-22T03:42:36.666Z,100.00
2022-10-22T03:45:05.169Z,100.00
2022-10-22T03:47:32.876Z,99.10
2022-10-22T03:50:00.552Z,99.18
2022-10-22T03:52:28.265Z,99.09
2022-10-22T03:54:57.735Z,97.08
2022-10-22T03:57:25.512Z,98.50
2022-10-22T03:59:53.299Z,97.88
2022-10-22T04:02:21.625Z,98.14
2022-10-22T04:04:49.305Z,98.34
2022-10-22T04:07:17.039Z,98.71
2022-10-22T04:09:44.776Z,99.07
2022-10-22T04:12:13.873Z,97.53
2022-10-22T04:14:41.613Z,96.58
2022-10-22T04:17:09.307Z,95.94
2022-10-22T04:19:37.106Z,96.45
2022-10-22T04:22:04.848Z,95.45
2022-10-22T04:24:33.546Z,95.45
2022-10-22T04:27:01.311Z,95.07
2022-10-22T04:29:30.382Z,94.81
2022-10-22T04:31:58.098Z,94.29
2022-10-22T04:34:28.516Z,94.79
2022-10-22T04:36:56.489Z,97.58
2022-10-22T04:39:24.318Z,97.17
2022-10-22T04:41:52.043Z,95.64
2022-10-22T04:44:19.736Z,96.20
2022-10-22T04:46:48.996Z,99.45
2022-10-22T04:49:16.704Z,98.01
2022-10-22T04:51:44.445Z,97.21
2022-10-22T04:54:12.129Z,97.54
2022-10-22T04:56:39.900Z,97.04
2022-10-22T04:59:09.636Z,97.32
2022-10-22T05:01:42.721Z,97.21
2022-10-22T05:04:15.425Z,97.10
2022-10-22T05:06:43.322Z,97.18
2022-10-22T05:09:14.816Z,99.13
2022-10-22T05:11:45.591Z,98.80
2022-10-22T05:14:14.195Z,98.49
2022-10-22T05:16:42.395Z,100.00
2022-10-22T05:19:16.717Z,99.06
2022-10-22T05:21:44.497Z,98.72
2022-10-22T05:24:12.310Z,99.70
2022-10-22T05:26:40.136Z,99.34
2022-10-22T05:29:08.277Z,99.34
2022-10-22T05:31:36.103Z,98.47
2022-10-22T05:34:03.866Z,97.85
2022-10-22T05:36:32.904Z,98.63
2022-10-22T05:39:01.092Z,99.91
2022-10-22T05:41:29.944Z,99.87
2022-10-22T05:43:58.609Z,100.00
2022-10-22T05:46:28.466Z,100.00
2022-10-22T05:48:57.795Z,100.00
2022-10-22T05:51:26.817Z,100.00
2022-10-22T05:53:57.897Z,98.78
2022-10-22T05:56:26.994Z,100.00
2022-10-22T05:58:55.189Z,100.00
2022-10-22T06:01:25.133Z,100.00
2022-10-22T06:03:55.361Z,99.03
2022-10-22T06:06:28.375Z,100.00
2022-10-22T06:09:02.313Z,100.00
2022-10-22T06:11:32.614Z,100.00
2022-10-22T06:14:02.861Z,100.00
2022-10-22T06:16:31.741Z,100.00
2022-10-22T06:19:00.952Z,100.00
2022-10-22T06:21:28.739Z,100.00
2022-10-22T06:23:58.762Z,100.00
2022-10-22T06:26:27.208Z,100.00
2022-10-22T06:28:55.886Z,100.00
2022-10-22T06:31:23.711Z,100.00
2022-10-22T06:33:51.432Z,98.54
2022-10-22T06:36:21.155Z,98.84
2022-10-22T06:38:48.847Z,97.40
2022-10-22T06:41:17.943Z,98.05
2022-10-22T06:43:47.497Z,98.91
2022-10-22T06:46:19.849Z,97.71
2022-10-22T06:48:50.986Z,97.58
2022-10-22T06:51:19.292Z,98.10
2022-10-22T06:53:47.007Z,97.85
2022-10-22T06:56:19.491Z,97.20
2022-10-22T06:58:48.501Z,96.38
2022-10-22T07:01:18.769Z,95.62
2022-10-22T07:03:47.166Z,94.92
2022-10-22T07:06:16.343Z,96.46
2022-10-22T07:08:44.971Z,96.77
2022-10-22T07:11:14.493Z,96.83
2022-10-22T07:13:43.921Z,97.13
2022-10-22T07:16:12.274Z,99.77
2022-10-22T07:18:41.553Z,96.74
2022-10-22T07:21:11.004Z,96.14
2022-10-22T07:23:39.149Z,96.49
2022-10-22T07:26:08.745Z,92.99
2022-10-22T07:28:38.007Z,92.93
2022-10-22T07:31:07.696Z,94.90
2022-10-22T07:33:35.906Z,94.46
2022-10-22T07:36:06.883Z,92.32
2022-10-22T07:38:35.381Z,87.56
2022-10-22T07:41:03.259Z,85.38
2022-10-22T07:43:31.331Z,77.96
2022-10-22T07:45:59.916Z,70.82
2022-10-22T07:48:29.083Z,70.14
2022-10-22T07:50:56.893Z,71.19
2022-10-22T07:53:24.721Z,67.46
2022-10-22T07:55:53.440Z,68.98
2022-10-22T07:58:22.250Z,65.19
2022-10-22T08:00:51.002Z,61.66
2022-10-22T08:03:19.756Z,59.46
2022-10-22T08:05:49.289Z,58.55
2022-10-22T08:08:18.139Z,60.31
2022-10-22T08:10:47.120Z,57.21
2022-10-22T08:13:15.439Z,57.14
2022-10-22T08:18:12.753Z,55.86
2022-10-22T08:20:41.129Z,55.34
2022-10-22T08:23:10.299Z,53.64
2022-10-22T08:25:38.084Z,53.42
2022-10-22T08:28:06.113Z,52.67
2022-10-22T08:30:34.003Z,53.72
2022-10-22T08:33:01.769Z,52.11
2022-10-22T08:35:29.539Z,52.58
2022-10-22T08:37:57.705Z,56.41
2022-10-22T08:40:31.397Z,63.02
2022-10-22T08:43:14.249Z,65.82
2022-10-22T08:45:51.641Z,69.71
2022-10-22T08:48:37.334Z,72.38
2022-10-22T08:51:05.813Z,73.18
2022-10-22T08:53:43.104Z,73.11
2022-10-22T08:56:12.250Z,74.76
2022-10-22T08:58:47.263Z,78.13
2022-10-22T09:01:18.639Z,78.54
2022-10-22T09:03:53.542Z,78.06
2022-10-22T09:06:23.691Z,76.78
2022-10-22T09:08:52.696Z,75.60
2022-10-22T09:11:26.462Z,75.13
2022-10-22T09:13:57.296Z,80.08
2022-10-22T09:16:33.408Z,79.90
2022-10-22T09:19:14.034Z,78.22
2022-10-22T09:21:51.940Z,76.72
2022-10-22T09:24:33.264Z,77.61
2022-10-22T09:27:08.964Z,78.63
2022-10-22T09:29:36.667Z,77.73
2022-10-22T09:32:04.912Z,77.87
2022-10-22T09:34:32.626Z,78.20
2022-10-22T09:37:01.965Z,82.54
2022-10-22T09:39:33.501Z,81.49
2022-10-22T09:42:02.585Z,79.53
2022-10-22T09:44:30.445Z,79.87
2022-10-22T09:46:58.231Z,78.68
2022-10-22T09:49:25.989Z,77.19
2022-10-22T09:51:56.084Z,78.87
2022-10-22T09:54:26.214Z,78.72
2022-10-22T09:56:59.134Z,78.16
2022-10-22T09:59:31.793Z,77.14
2022-10-22T10:02:19.760Z,76.33
2022-10-22T10:04:56.527Z,74.82
2022-10-22T10:07:26.661Z,77.36
2022-10-22T10:09:55.525Z,76.49
2022-10-22T10:12:36.887Z,75.73
2022-10-22T10:15:19.381Z,76.59
2022-10-22T10:17:55.368Z,75.20
2022-10-22T10:20:41.906Z,75.43
2022-10-22T10:23:23.052Z,78.81
2022-10-22T10:25:58.431Z,76.53
2022-10-22T10:28:49.070Z,77.75
2022-10-22T10:31:29.282Z,76.47
2022-10-22T10:34:07.541Z,78.35
2022-10-22T10:36:45.973Z,80.42
2022-10-22T10:39:20.693Z,79.44
2022-10-22T10:41:56.229Z,81.11
2022-10-22T10:44:49.487Z,80.62
2022-10-22T10:47:30.639Z,80.33
2022-10-22T10:50:12.242Z,81.13
2022-10-22T10:52:46.295Z,80.78
2022-10-22T10:55:23.460Z,81.24
2022-10-22T10:57:59.879Z,81.01
2022-10-22T11:00:30.731Z,81.05
2022-10-22T11:03:35.357Z,79.62
2022-10-22T11:06:08.577Z,80.52
2022-10-22T11:08:41.942Z,79.26
2022-10-22T11:13:53.908Z,76.33
2022-10-22T11:16:28.125Z,77.38
2022-10-22T11:19:03.433Z,79.66
2022-10-22T11:21:37.392Z,78.80
2022-10-22T11:24:16.681Z,81.27
2022-10-22T11:26:49.055Z,78.42
2022-10-22T11:29:23.660Z,77.95
2022-10-22T11:31:55.469Z,76.93
2022-10-22T11:34:33.552Z,78.74
2022-10-22T11:37:03.993Z,76.71
2022-10-22T11:39:35.988Z,77.88
2022-10-22T11:42:07.086Z,80.61
2022-10-22T11:44:47.579Z,79.09
2022-10-22T11:47:21.388Z,79.54
2022-10-22T11:50:00.733Z,80.10
2022-10-22T11:52:40.401Z,78.54
2022-10-22T11:55:32.272Z,76.75
2022-10-22T11:58:01.866Z,77.09
2022-10-22T12:00:41.009Z,77.67
2022-10-22T12:03:18.970Z,76.58
2022-10-22T12:05:55.106Z,76.59
2022-10-22T12:08:27.736Z,77.79
2022-10-22T12:11:05.557Z,78.55
2022-10-22T12:13:43.443Z,76.54
2022-10-22T12:16:14.240Z,78.23
2022-10-22T12:18:45.668Z,79.32
2022-10-22T12:21:16.937Z,78.49
2022-10-22T12:23:46.728Z,77.60
2022-10-22T12:26:28.047Z,77.85
2022-10-22T12:28:59.701Z,77.70
2022-10-22T12:31:27.801Z,80.16
2022-10-22T12:33:58.821Z,78.30
2022-10-22T12:36:28.646Z,79.42
2022-10-22T12:38:56.733Z,81.33
2022-10-22T12:41:31.673Z,81.30
2022-10-22T12:44:03.149Z,79.25
2022-10-22T12:46:33.867Z,78.36
2022-10-22T12:49:02.728Z,78.91
2022-10-22T12:54:09.819Z,78.26
2022-10-22T12:56:38.874Z,77.98
2022-10-22T12:59:14.959Z,75.59
2022-10-22T13:01:44.401Z,77.06
2022-10-22T13:04:22.079Z,79.57
2022-10-22T13:06:52.508Z,77.18
2022-10-22T13:09:25.229Z,77.80
2022-10-22T13:11:58.263Z,77.88
2022-10-22T13:14:29.775Z,76.46
2022-10-22T13:17:12.826Z,76.94
2022-10-22T13:19:47.392Z,75.90
2022-10-22T13:22:34.760Z,73.78
2022-10-22T13:25:21.192Z,73.56
2022-10-22T13:27:50.911Z,74.59
2022-10-22T13:30:22.415Z,72.36
2022-10-22T13:32:52.180Z,73.20
2022-10-22T13:35:24.410Z,73.46
2022-10-22T13:37:53.983Z,74.35
2022-10-22T13:40:22.380Z,73.67
2022-10-22T13:42:50.043Z,74.23
2022-10-22T13:45:18.857Z,73.78
2022-10-22T13:47:54.634Z,73.82
2022-10-22T13:50:22.873Z,73.36
2022-10-22T13:52:54.519Z,73.46
2022-10-22T13:55:25.555Z,74.02
2022-10-22T13:57:56.101Z,74.73
2022-10-22T14:00:26.889Z,76.02
2022-10-22T14:02:59.108Z,74.12
2022-10-22T14:05:27.515Z,74.09
2022-10-22T14:07:57.917Z,75.21
2022-10-22T14:10:26.152Z,74.41
2022-10-22T14:12:54.158Z,74.72
2022-10-22T14:15:23.861Z,74.92
2022-10-22T14:17:56.917Z,73.75
2022-10-22T14:20:27.803Z,74.15
2022-10-22T14:22:57.263Z,74.95
2022-10-22T14:25:26.585Z,76.12
2022-10-22T14:27:54.738Z,76.52
2022-10-22T14:30:24.566Z,78.13
2022-10-22T14:32:52.547Z,77.02
2022-10-22T14:35:23.266Z,75.61
2022-10-22T14:37:51.945Z,76.67
2022-10-22T14:40:22.270Z,76.12
2022-10-22T14:42:50.265Z,76.34
2022-10-22T14:45:21.070Z,76.80
2022-10-22T14:47:48.963Z,77.00
2022-10-22T14:50:17.257Z,77.30
2022-10-22T14:52:45.788Z,78.08
2022-10-22T14:55:15.997Z,76.52
2022-10-22T14:57:45.896Z,77.39
2022-10-22T15:00:16.483Z,76.36
2022-10-22T15:02:45.166Z,75.90
2022-10-22T15:05:13.491Z,76.33
2022-10-22T15:07:41.763Z,76.28
2022-10-22T15:10:10.812Z,76.21
2022-10-22T15:12:38.677Z,77.14
2022-10-22T15:15:08.994Z,79.22
2022-10-22T15:17:36.732Z,80.92
2022-10-22T15:20:05.827Z,83.57
2022-10-22T15:22:35.603Z,85.63
2022-10-22T15:25:04.706Z,86.71
2022-10-22T15:27:32.405Z,88.86
2022-10-22T15:30:00.278Z,87.37
2022-10-22T15:32:29.788Z,87.13
2022-10-22T15:34:57.571Z,86.20
2022-10-22T15:37:25.405Z,86.32
2022-10-22T15:39:53.122Z,87.53
2022-10-22T15:42:20.937Z,86.45
2022-10-22T15:44:48.695Z,88.17
2022-10-22T15:47:16.420Z,86.84
2022-10-22T15:49:45.890Z,86.87
2022-10-22T15:52:13.673Z,86.26
2022-10-22T15:54:43.795Z,88.15
2022-10-22T15:57:11.518Z,88.31
2022-10-22T15:59:39.222Z,88.00
2022-10-22T16:02:08.111Z,88.91
2022-10-22T16:04:35.843Z,89.29
2022-10-22T16:07:05.023Z,90.63
2022-10-22T16:09:32.747Z,89.11
2022-10-22T16:12:00.616Z,92.18
2022-10-22T16:14:28.891Z,91.57
2022-10-22T16:16:57.261Z,89.89
2022-10-22T16:19:27.173Z,90.64
2022-10-22T16:21:56.777Z,90.44
2022-10-22T16:24:25.970Z,90.55
2022-10-22T16:26:53.903Z,91.48
2022-10-22T16:29:21.729Z,90.79
2022-10-22T16:31:49.615Z,89.76
2022-10-22T16:34:17.436Z,90.29
2022-10-22T16:36:45.267Z,91.56
2022-10-22T16:39:13.085Z,90.10
2022-10-22T16:41:42.238Z,90.31
2022-10-22T16:44:12.334Z,90.62
2022-10-22T16:46:40.097Z,90.58
2022-10-22T16:49:08.446Z,92.62
2022-10-22T16:51:36.610Z,92.10
2022-10-22T16:54:06.936Z,91.73
2022-10-22T16:56:37.609Z,90.09
2022-10-22T16:59:07.820Z,90.74
2022-10-22T17:01:40.326Z,90.60
2022-10-22T17:04:09.179Z,92.96
2022-10-22T17:06:37.229Z,91.93
2022-10-22T17:09:05.691Z,92.13
2022-10-22T17:11:36.356Z,90.88
2022-10-22T17:14:07.752Z,92.86
2022-10-22T17:16:35.660Z,91.64
2022-10-22T17:19:05.205Z,92.37
2022-10-22T17:21:33.989Z,91.77
2022-10-22T17:24:01.858Z,90.91
2022-10-22T17:26:30.460Z,90.65
2022-10-22T17:28:58.755Z,90.36
2022-10-22T17:31:29.837Z,89.96
2022-10-22T17:33:59.866Z,90.19
2022-10-22T17:36:33.342Z,92.24
2022-10-22T17:39:06.538Z,90.99
2022-10-22T17:41:37.271Z,91.35
2022-10-22T17:44:09.132Z,91.82
2022-10-22T17:46:39.341Z,91.66
2022-10-22T17:49:13.370Z,91.28
2022-10-22T17:51:41.689Z,91.97
2022-10-22T17:54:10.275Z,91.67
2022-10-22T17:56:40.289Z,89.82
2022-10-22T17:59:08.709Z,90.33
2022-10-22T18:01:43.483Z,89.92
2022-10-22T18:04:14.246Z,89.39
2022-10-22T18:06:42.238Z,89.96
2022-10-22T18:09:17.215Z,89.52
2022-10-22T18:11:46.852Z,89.63
2022-10-22T18:14:14.844Z,88.92
2022-10-22T18:16:44.103Z,88.22
2022-10-22T18:19:13.530Z,87.58
2022-10-22T18:21:41.626Z,87.98
2022-10-22T18:24:10.794Z,87.89
2022-10-22T18:26:38.962Z,87.90
2022-10-22T18:29:06.743Z,88.40
2022-10-22T18:31:34.439Z,87.58
2022-10-22T18:34:03.557Z,87.80
2022-10-22T18:36:31.476Z,91.03
2022-10-22T18:39:01.120Z,91.39
2022-10-22T18:41:30.325Z,90.86
2022-10-22T18:43:59.833Z,93.01
2022-10-22T18:46:28.761Z,92.30
2022-10-22T18:48:56.922Z,91.00
2022-10-22T18:51:28.388Z,91.27
2022-10-22T18:54:11.279Z,91.66
2022-10-22T18:56:44.502Z,90.84
2022-10-22T18:59:16.259Z,90.79
2022-10-22T19:01:44.019Z,90.45
2022-10-22T19:04:13.164Z,91.04
2022-10-22T19:06:45.734Z,91.38
2022-10-22T19:09:14.786Z,92.44
2022-10-22T19:11:43.872Z,91.64
2022-10-22T19:14:11.715Z,90.91
2022-10-22T19:16:39.664Z,91.48
2022-10-22T19:19:08.580Z,92.28
2022-10-22T19:21:37.686Z,93.06
2022-10-22T19:24:07.965Z,92.87
2022-10-22T19:26:36.188Z,93.07
2022-10-22T19:29:04.928Z,92.47
2022-10-22T19:31:33.143Z,93.24
2022-10-22T19:34:02.179Z,92.58
2022-10-22T19:36:31.220Z,92.81
2022-10-22T19:38:59.793Z,92.71
2022-10-22T19:41:31.490Z,92.56
2022-10-22T19:44:00.446Z,91.91
2022-10-22T19:46:30.273Z,92.90
2022-10-22T19:48:58.102Z,93.46
2022-10-22T19:51:27.892Z,92.60
2022-10-22T19:53:59.636Z,92.28
2022-10-22T19:56:29.318Z,92.67
2022-10-22T19:58:57.051Z,92.95
2022-10-22T20:01:25.137Z,93.23
2022-10-22T20:03:53.566Z,93.34
2022-10-22T20:06:21.969Z,93.28
2022-10-22T20:08:53.766Z,92.37
2022-10-22T20:11:25.867Z,93.38
2022-10-22T20:13:55.908Z,92.69
2022-10-22T20:16:26.048Z,92.67
2022-10-22T20:18:54.203Z,92.54
2022-10-22T20:21:22.668Z,92.77
2022-10-22T20:23:54.357Z,91.67
2022-10-22T20:26:23.897Z,91.65
2022-10-22T20:28:51.904Z,91.70
2022-10-22T20:31:23.011Z,91.72
2022-10-22T20:33:51.463Z,92.04
2022-10-22T20:36:21.828Z,90.46
2022-10-22T20:38:50.165Z,91.36
2022-10-22T20:41:19.506Z,92.35
2022-10-22T20:43:47.810Z,91.92
2022-10-22T20:46:19.525Z,92.59
2022-10-22T20:48:48.953Z,91.45
2022-10-22T20:51:16.790Z,91.33
2022-10-22T20:53:44.540Z,91.96
2022-10-22T20:56:13.507Z,91.30
2022-10-22T20:58:46.493Z,91.08
2022-10-22T21:01:20.430Z,90.56
2022-10-22T21:03:50.343Z,91.18
2022-10-22T21:06:20.956Z,91.09
2022-10-22T21:08:49.010Z,91.42
2022-10-22T21:11:16.888Z,91.14
2022-10-22T21:13:45.010Z,90.73
2022-10-22T21:16:14.618Z,90.91
2022-10-22T21:18:42.454Z,91.25
2022-10-22T21:21:11.701Z,92.10
2022-10-22T21:23:40.278Z,93.68
2022-10-22T21:26:08.166Z,92.82
2022-10-22T21:28:37.301Z,91.84
2022-10-22T21:31:06.742Z,92.45
2022-10-22T21:33:37.212Z,91.11
2022-10-22T21:36:06.338Z,92.69
2022-10-22T21:38:35.914Z,96.58
2022-10-22T21:41:05.995Z,97.00
2022-10-22T21:43:33.885Z,95.42
2022-10-22T21:46:07.954Z,95.99
2022-10-22T21:48:36.660Z,95.50
2022-10-22T21:51:08.518Z,96.88
2022-10-22T21:53:38.319Z,97.06
2022-10-22T21:56:07.250Z,94.83
2022-10-22T21:58:35.940Z,95.47
2022-10-22T22:01:04.572Z,96.10
2022-10-22T22:03:32.341Z,94.77
2022-10-22T22:06:01.136Z,97.07
2022-10-22T22:08:29.449Z,99.19
2022-10-22T22:11:04.211Z,99.34
2022-10-22T22:13:32.486Z,99.23
2022-10-22T22:16:01.546Z,97.52
2022-10-22T22:18:30.299Z,98.10
2022-10-22T22:20:58.324Z,97.79
2022-10-22T22:23:26.656Z,96.08
2022-10-22T22:25:54.354Z,96.54
2022-10-22T22:28:23.446Z,97.71
2022-10-22T22:30:51.227Z,99.19
2022-10-22T22:33:19.090Z,95.87
2022-10-22T22:35:46.808Z,95.02
2022-10-22T22:38:14.705Z,95.74
2022-10-22T22:40:43.232Z,96.12
2022-10-22T22:43:12.093Z,97.47
2022-10-22T22:45:41.144Z,97.17
2022-10-22T22:48:09.021Z,97.01
2022-10-22T22:50:37.157Z,96.56
2022-10-22T22:53:04.923Z,96.13
2022-10-22T22:55:32.893Z,95.23
2022-10-22T22:58:00.631Z,95.25
2022-10-22T23:00:28.470Z,95.70
2022-10-22T23:02:58.025Z,94.89
2022-10-22T23:05:25.832Z,95.92
2022-10-22T23:07:54.109Z,95.37
2022-10-22T23:10:21.941Z,95.33
2022-10-22T23:12:50.606Z,95.82
2022-10-22T23:15:18.500Z,98.16
2022-10-22T23:17:46.241Z,96.43
2022-10-22T23:20:15.366Z,96.93
2022-10-22T23:22:43.373Z,99.33
2022-10-22T23:25:11.320Z,100.00
2022-10-22T23:27:39.034Z,99.38
2022-10-22T23:30:08.054Z,99.13
2022-10-22T23:32:35.694Z,98.32
2022-10-22T23:35:03.377Z,98.92
2022-10-22T23:37:32.608Z,98.75
2022-10-22T23:40:00.322Z,98.80
2022-10-22T23:42:28.045Z,99.03
2022-10-22T23:44:55.895Z,96.80
2022-10-22T23:47:23.616Z,97.35
2022-10-22T23:49:51.294Z,96.19
2022-10-22T23:52:19.022Z,97.48
2022-10-22T23:54:49.603Z,99.30
2022-10-22T23:57:17.307Z,98.55
2022-10-22T23:59:45.071Z,99.62
